Time;durP1;ratioP1;P1;durP2;ratioP2;P2;SDS_P1;SDS_P2;PMS_P1;PMS_P2;Temp;Humidity;BMP_temperature;BMP_pressure;BME280_temperature;BME280_humidity;BME280_pressure;Samples;Min_cycle;Max_cycle;Signal;HPM_P1;HPM_P2
2022/06/27 11:58:59;;;;;;;;;10.00;9.50;;;30.36;97926.27;;;;117485;1206;23484;-70
2022/06/27 12:01:28;;;;;;;;;6.00;6.00;;;30.58;97927.21;;;;118542;1193;25346;-64
2022/06/27 12:04:08;;;;;;;;;9.50;9.50;;;30.64;97924.44;;;;118537;1193;25159;-67
2022/06/27 12:06:58;;;;;;;;;8.33;8.33;;;30.54;97921.45;;;;119191;1186;24937;-65
2022/06/27 12:09:28;;;;;;;;;9.75;8.50;;;30.45;97924.34;;;;119162;1187;25373;-63
2022/06/27 12:12:02;;;;;;;;;8.00;7.67;;;30.35;97916.55;;;;119032;1189;25486;-64
2022/06/27 12:14:32;;;;;;;;;5.75;5.75;;;30.31;97916.80;;;;118989;1187;25092;-63
2022/06/27 12:17:00;;;;;;;;;7.67;7.67;;;30.32;97917.70;;;;119040;1188;24935;-67
2022/06/27 12:19:29;;;;;;;;;8.75;8.75;;;30.25;97914.52;;;;119157;1187;25748;-68
2022/06/27 12:21:57;;;;;;;;;9.00;8.00;;;30.28;97910.16;;;;119028;1189;25225;-66
2022/06/27 12:24:25;;;;;;;;;53.75;37.00;;;30.28;97907.31;;;;118986;1188;24995;-69
2022/06/27 12:26:54;;;;;;;;;26.50;23.25;;;30.25;97906.92;;;;118974;1188;25610;-68
2022/06/27 12:29:22;;;;;;;;;18.00;16.25;;;30.28;97904.59;;;;119135;1188;25422;-70
2022/06/27 12:31:50;;;;;;;;;16.75;13.25;;;30.29;97906.40;;;;119130;1188;25001;-64
2022/06/27 12:34:19;;;;;;;;;11.25;11.25;;;30.30;97906.36;;;;119126;1188;25088;-71
2022/06/27 12:36:47;;;;;;;;;14.00;12.75;;;30.29;97909.98;;;;119352;1187;25994;-71
2022/06/27 12:39:15;;;;;;;;;17.25;13.00;;;30.29;97912.48;;;;119380;1188;24861;-72
2022/06/27 12:41:42;;;;;;;;;12.50;12.25;;;30.25;97908.35;;;;119386;1186;25506;-68
2022/06/27 12:44:10;;;;;;;;;14.50;11.50;;;30.26;97908.73;;;;119384;1186;25268;-68
2022/06/27 12:46:38;;;;;;;;;10.25;9.25;;;30.23;97907.77;;;;119198;1187;25214;-66
2022/06/27 12:49:25;;;;;;;;;11.25;10.50;;;30.27;97905.12;;;;119339;1186;25523;-72
2022/06/27 12:51:54;;;;;;;;;14.00;11.25;;;30.30;97909.59;;;;119424;1186;25472;-64
2022/06/27 12:54:28;;;;;;;;;21.50;16.50;;;30.28;97911.77;;;;119205;1187;25622;-64
2022/06/27 12:56:57;;;;;;;;;16.25;14.25;;;30.37;97910.54;;;;119251;1188;25036;-63
2022/06/27 12:59:25;;;;;;;;;22.25;15.25;;;30.32;97910.30;;;;119271;1188;24854;-67
2022/06/27 13:01:52;;;;;;;;;15.75;14.25;;;30.26;97903.52;;;;119018;1189;24858;-63
2022/06/27 13:04:20;;;;;;;;;16.75;14.50;;;30.22;97904.71;;;;119273;1187;25694;-67
2022/06/27 13:06:48;;;;;;;;;29.50;21.25;;;30.20;97903.88;;;;119279;1187;25556;-64
2022/06/27 13:09:16;;;;;;;;;15.00;13.00;;;30.19;97899.79;;;;119287;1188;25673;-65
2022/06/27 13:11:44;;;;;;;;;12.25;8.75;;;30.18;97902.46;;;;119302;1187;25227;-64
2022/06/27 13:14:12;;;;;;;;;19.25;15.75;;;30.18;97902.52;;;;119291;1187;25484;-68
2022/06/27 13:16:40;;;;;;;;;16.50;12.00;;;30.16;97899.47;;;;119047;1189;24887;-67
2022/06/27 13:19:10;;;;;;;;;10.25;8.75;;;30.17;97899.36;;;;119299;1188;25175;-66
2022/06/27 13:21:39;;;;;;;;;10.75;9.25;;;30.17;97897.31;;;;119294;1188;25620;-68
2022/06/27 13:24:07;;;;;;;;;11.25;7.25;;;30.20;97900.02;;;;119300;1187;25611;-65
2022/06/27 13:26:43;;;;;;;;;5.33;5.33;;;30.23;97898.99;;;;119286;1187;25343;-62
2022/06/27 13:29:11;;;;;;;;;7.75;7.75;;;30.22;97895.23;;;;119294;1187;25654;-64
2022/06/27 13:31:39;;;;;;;;;9.25;9.25;;;30.21;97895.55;;;;119334;1186;25659;-63
2022/06/27 13:34:07;;;;;;;;;8.25;6.75;;;30.22;97897.36;;;;119278;1187;26521;-63
2022/06/27 13:36:55;;;;;;;;;6.00;6.00;;;30.32;97903.25;;;;119293;1187;26056;-64
2022/06/27 13:39:24;;;;;;;;;5.75;5.75;;;30.35;97898.98;;;;119306;1188;25257;-64
2022/06/27 13:41:52;;;;;;;;;6.00;6.00;;;30.32;97895.02;;;;119288;1187;25359;-64
2022/06/27 13:44:20;;;;;;;;;6.50;6.00;;;30.32;97890.60;;;;119306;1187;25915;-65
2022/06/27 13:46:48;;;;;;;;;9.00;6.50;;;30.30;97887.58;;;;119083;1188;25429;-65
2022/06/27 13:49:16;;;;;;;;;8.00;5.25;;;30.32;97885.34;;;;119292;1186;25088;-64
2022/06/27 13:51:44;;;;;;;;;7.50;7.50;;;30.34;97880.41;;;;119304;1186;25757;-62
2022/06/27 13:54:12;;;;;;;;;9.50;5.75;;;30.35;97877.85;;;;119246;1187;25097;-64
2022/06/27 13:56:40;;;;;;;;;6.75;6.75;;;30.37;97879.31;;;;119290;1187;25513;-63
2022/06/27 13:59:10;;;;;;;;;7.75;5.75;;;30.39;97881.27;;;;119288;1187;25672;-64
2022/06/27 14:01:42;;;;;;;;;5.50;5.00;;;30.43;97881.70;;;;119294;1187;25298;-63
2022/06/27 14:04:11;;;;;;;;;7.25;6.00;;;30.47;97881.42;;;;119295;1187;25183;-64
2022/06/27 14:09:27;;;;;;;;;8.75;7.00;;;30.54;97879.16;;;;119290;1187;25264;-64
2022/06/27 14:11:55;;;;;;;;;7.00;5.50;;;30.54;97875.73;;;;119285;1187;25403;-66
2022/06/27 14:14:23;;;;;;;;;7.00;6.00;;;30.56;97873.48;;;;119314;1187;25568;-67
2022/06/27 14:16:51;;;;;;;;;6.50;6.50;;;30.59;97875.42;;;;119295;1186;24937;-67
2022/06/27 14:19:20;;;;;;;;;3.67;3.33;;;30.60;97870.63;;;;119298;1187;25373;-66
2022/06/27 14:21:49;;;;;;;;;7.25;7.25;;;30.65;97866.63;;;;119306;1187;25604;-65
2022/06/27 14:24:17;;;;;;;;;7.75;4.50;;;30.68;97866.52;;;;119286;1186;25582;-64
2022/06/27 14:26:45;;;;;;;;;4.25;4.00;;;30.72;97862.06;;;;119290;1186;25777;-64
2022/06/27 14:29:13;;;;;;;;;7.25;5.75;;;30.75;97858.73;;;;119298;1187;24980;-63
2022/06/27 14:31:41;;;;;;;;;8.50;5.00;;;30.78;97856.19;;;;119296;1186;24950;-64
2022/06/27 14:34:09;;;;;;;;;6.00;6.00;;;30.80;97856.27;;;;119092;1187;25148;-64
2022/06/27 14:36:37;;;;;;;;;7.25;7.25;;;30.84;97852.14;;;;119285;1187;25472;-64
2022/06/27 14:39:05;;;;;;;;;5.75;3.75;;;30.86;97847.77;;;;119288;1187;25212;-63
2022/06/27 14:41:34;;;;;;;;;7.25;5.00;;;30.89;97846.45;;;;119291;1187;24823;-63
2022/06/27 14:44:04;;;;;;;;;6.25;5.00;;;30.92;97844.67;;;;119293;1187;25546;-65
2022/06/27 14:46:32;;;;;;;;;5.75;5.00;;;30.99;97844.23;;;;119286;1187;25302;-64
2022/06/27 14:49:00;;;;;;;;;5.00;5.00;;;31.01;97841.98;;;;119317;1186;25349;-63
2022/06/27 14:51:28;;;;;;;;;7.00;4.75;;;31.03;97840.15;;;;119285;1187;24730;-63
2022/06/27 14:53:56;;;;;;;;;6.75;4.00;;;31.09;97842.79;;;;119316;1187;25209;-64
2022/06/27 14:56:25;;;;;;;;;5.00;5.00;;;31.12;97838.79;;;;119305;1188;24940;-64
2022/06/27 14:58:54;;;;;;;;;8.25;6.50;;;31.13;97836.35;;;;119282;1186;25635;-66
2022/06/27 15:01:22;;;;;;;;;7.00;6.50;;;31.16;97832.91;;;;119276;1187;25741;-66
2022/06/27 15:03:51;;;;;;;;;5.50;5.50;;;31.20;97829.56;;;;119285;1187;25773;-63
2022/06/27 15:06:19;;;;;;;;;7.75;7.25;;;31.21;97828.81;;;;119310;1187;26395;-64
2022/06/27 15:08:50;;;;;;;;;6.75;5.75;;;31.25;97827.13;;;;119140;1188;25517;-66
2022/06/27 15:11:36;;;;;;;;;5.67;5.67;;;31.26;97825.15;;;;119297;1187;25793;-64
2022/06/27 15:14:06;;;;;;;;;5.00;5.00;;;31.32;97825.83;;;;119293;1188;26155;-64
2022/06/27 15:16:45;;;;;;;;;5.00;5.00;;;31.33;97823.60;;;;119283;1187;25838;-64
2022/06/27 15:19:17;;;;;;;;;9.25;7.00;;;31.37;97823.00;;;;119273;1186;25882;-64
2022/06/27 15:21:47;;;;;;;;;6.25;6.25;;;31.41;97824.16;;;;119298;1187;25323;-63
2022/06/27 15:24:31;;;;;;;;;5.00;5.00;;;31.46;97822.81;;;;119079;1187;25149;-63
2022/06/27 15:27:00;;;;;;;;;5.00;5.00;;;31.47;97820.54;;;;119106;1188;25456;-63
2022/06/27 15:29:48;;;;;;;;;5.75;5.75;;;31.53;97820.00;;;;119290;1187;25485;-63
2022/06/27 15:32:16;;;;;;;;;5.50;5.50;;;31.53;97820.41;;;;119291;1188;25465;-63
2022/06/27 15:34:44;;;;;;;;;5.25;5.25;;;31.52;97819.79;;;;119303;1187;25582;-65
2022/06/27 15:37:14;;;;;;;;;4.75;4.75;;;31.51;97817.91;;;;119288;1186;25498;-64
2022/06/27 15:39:42;;;;;;;;;5.75;5.75;;;31.49;97818.57;;;;119290;1188;25435;-63
2022/06/27 15:42:10;;;;;;;;;5.25;5.25;;;31.51;97817.08;;;;119279;1188;25747;-63
2022/06/27 15:44:38;;;;;;;;;4.75;3.00;;;31.54;97820.77;;;;119287;1187;25521;-63
2022/06/27 15:47:07;;;;;;;;;4.00;4.00;;;31.55;97822.76;;;;119072;1188;25328;-63
2022/06/27 15:49:34;;;;;;;;;6.00;5.50;;;31.56;97820.38;;;;119283;1187;25622;-63
2022/06/27 15:52:03;;;;;;;;;6.00;5.75;;;31.57;97819.55;;;;119283;1187;25690;-63
2022/06/27 15:54:31;;;;;;;;;4.00;4.00;;;31.61;97815.69;;;;119298;1187;25494;-63
2022/06/27 15:56:59;;;;;;;;;4.50;4.50;;;31.63;97815.81;;;;119266;1186;25124;-64
2022/06/27 15:59:26;;;;;;;;;4.50;4.50;;;31.64;97819.30;;;;119273;1187;25375;-63
2022/06/27 16:01:54;;;;;;;;;5.50;4.00;;;31.64;97820.04;;;;119301;1186;25644;-63
2022/06/27 16:04:24;;;;;;;;;5.00;4.50;;;31.65;97821.83;;;;119304;1186;25205;-63
2022/06/27 16:06:53;;;;;;;;;6.00;4.25;;;31.67;97821.41;;;;119259;1187;26164;-63
2022/06/27 16:09:22;;;;;;;;;5.00;5.00;;;31.67;97819.87;;;;119247;1187;25389;-63
2022/06/27 16:11:51;;;;;;;;;5.50;5.50;;;31.67;97819.87;;;;119293;1187;25601;-66
2022/06/27 16:14:19;;;;;;;;;4.00;3.75;;;31.65;97822.96;;;;119275;1188;25139;-65
2022/06/27 16:16:46;;;;;;;;;5.25;4.50;;;31.66;97825.82;;;;119287;1187;25210;-64
2022/06/27 16:19:14;;;;;;;;;5.00;5.00;;;31.67;97824.84;;;;119298;1187;25668;-64
2022/06/27 16:21:42;;;;;;;;;6.00;6.00;;;31.69;97827.89;;;;119284;1186;24850;-63
2022/06/27 16:24:10;;;;;;;;;5.75;4.00;;;31.68;97827.60;;;;119299;1187;25022;-63
2022/06/27 16:26:38;;;;;;;;;6.25;5.25;;;31.70;97825.16;;;;119290;1187;25535;-66
2022/06/27 16:29:06;;;;;;;;;6.00;5.00;;;31.71;97826.15;;;;119291;1186;26333;-64
2022/06/27 16:31:39;;;;;;;;;6.00;4.00;;;31.76;97825.43;;;;119315;1187;25125;-64
2022/06/27 16:34:10;;;;;;;;;7.00;6.50;;;31.69;97825.39;;;;119307;1187;25364;-64
2022/06/27 16:36:39;;;;;;;;;7.25;6.50;;;31.63;97822.61;;;;119292;1187;25549;-64
2022/06/27 16:39:08;;;;;;;;;6.00;6.00;;;31.56;97822.97;;;;119301;1187;24993;-63
2022/06/27 16:44:24;;;;;;;;;5.50;5.50;;;31.41;97821.32;;;;119260;1186;25942;-63
2022/06/27 16:46:53;;;;;;;;;5.00;5.00;;;31.32;97822.91;;;;119203;1186;25730;-64
2022/06/27 16:49:21;;;;;;;;;8.50;7.25;;;31.26;97822.14;;;;119219;1187;24786;-68
2022/06/27 16:51:57;;;;;;;;;8.75;8.50;;;31.21;97825.08;;;;119251;1187;25535;-62
2022/06/27 16:54:25;;;;;;;;;9.00;9.00;;;31.20;97822.61;;;;119289;1187;24974;-67
2022/06/27 16:56:54;;;;;;;;;9.25;7.75;;;31.16;97823.81;;;;119089;1189;25486;-73
2022/06/27 16:59:22;;;;;;;;;9.75;8.00;;;31.09;97822.35;;;;119275;1187;25289;-69
2022/06/27 17:01:50;;;;;;;;;10.75;10.50;;;31.07;97823.75;;;;118995;1190;24907;-63
2022/06/27 17:04:18;;;;;;;;;10.50;8.00;;;31.07;97827.33;;;;119299;1187;25069;-62
2022/06/27 17:06:47;;;;;;;;;7.00;6.75;;;31.06;97830.42;;;;119289;1187;25446;-62
2022/06/27 17:09:15;;;;;;;;;10.00;8.75;;;31.11;97831.34;;;;119285;1187;24835;-62
2022/06/27 17:11:44;;;;;;;;;13.00;10.00;;;31.01;97832.36;;;;119298;1187;24856;-65
2022/06/27 17:14:14;;;;;;;;;12.25;10.75;;;30.95;97830.11;;;;119164;1188;25557;-74
2022/06/27 17:16:42;;;;;;;;;12.00;11.75;;;30.95;97829.59;;;;119299;1187;26235;-60
2022/06/27 17:19:10;;;;;;;;;16.25;12.75;;;30.94;97830.51;;;;119224;1187;25171;-61
2022/06/27 17:21:38;;;;;;;;;13.25;10.25;;;30.95;97833.83;;;;119374;1187;25027;-61
2022/06/27 17:24:07;;;;;;;;;12.00;10.25;;;30.96;97830.53;;;;119250;1186;24794;-63
2022/06/27 17:26:35;;;;;;;;;11.50;11.00;;;30.93;97831.80;;;;119222;1187;25596;-63
2022/06/27 17:29:03;;;;;;;;;10.75;10.50;;;31.00;97833.44;;;;119282;1187;25045;-61
2022/06/27 17:31:31;;;;;;;;;13.25;11.50;;;30.97;97833.74;;;;119218;1188;26368;-63
2022/06/27 17:33:59;;;;;;;;;12.50;9.25;;;30.92;97832.23;;;;119264;1187;25255;-64
2022/06/27 17:36:26;;;;;;;;;18.25;13.00;;;30.90;97830.91;;;;119251;1188;25421;-65
2022/06/27 17:38:54;;;;;;;;;15.75;11.25;;;30.91;97830.58;;;;119029;1189;25794;-66
2022/06/27 17:41:22;;;;;;;;;13.00;11.00;;;30.88;97831.64;;;;119165;1188;25683;-65
2022/06/27 17:43:50;;;;;;;;;11.50;10.50;;;30.86;97832.55;;;;119187;1188;25129;-64
2022/06/27 17:46:18;;;;;;;;;12.00;9.00;;;30.81;97832.93;;;;119152;1187;25511;-64
2022/06/27 17:48:46;;;;;;;;;10.75;9.25;;;30.78;97833.45;;;;119161;1186;25381;-64
2022/06/27 17:51:14;;;;;;;;;8.75;8.75;;;30.76;97835.00;;;;119095;1189;24868;-64
2022/06/27 17:53:42;;;;;;;;;12.00;9.75;;;30.79;97831.55;;;;119021;1189;26065;-62
2022/06/27 17:56:15;;;;;;;;;10.25;10.25;;;30.74;97831.49;;;;119050;1189;25598;-62
2022/06/27 17:58:43;;;;;;;;;11.00;9.00;;;30.70;97827.80;;;;119147;1189;24996;-63
2022/06/27 18:01:11;;;;;;;;;10.00;9.33;;;30.68;97832.26;;;;119142;1187;25176;-64
2022/06/27 18:03:59;;;;;;;;;12.50;10.50;;;30.76;97837.77;;;;119131;1188;25240;-61
2022/06/27 18:06:28;;;;;;;;;14.50;11.00;;;30.71;97839.96;;;;119047;1188;25397;-62
2022/06/27 18:08:56;;;;;;;;;10.75;9.00;;;30.65;97843.73;;;;119028;1189;25433;-62
2022/06/27 18:11:25;;;;;;;;;10.25;8.75;;;30.61;97844.71;;;;119147;1187;24762;-62
2022/06/27 18:13:54;;;;;;;;;12.75;11.00;;;30.60;97846.39;;;;119037;1189;24915;-64
2022/06/27 18:16:22;;;;;;;;;9.75;8.50;;;30.56;97845.80;;;;119058;1188;25406;-64
2022/06/27 18:18:51;;;;;;;;;7.75;7.75;;;30.55;97846.38;;;;119283;1188;25165;-65
2022/06/27 18:21:19;;;;;;;;;10.00;7.75;;;30.52;97847.27;;;;119132;1188;25086;-64
2022/06/27 18:23:49;;;;;;;;;9.75;9.25;;;30.49;97852.84;;;;119105;1188;25767;-77
2022/06/27 18:26:17;;;;;;;;;7.33;6.00;;;30.49;97856.24;;;;119048;1188;25491;-71
2022/06/27 18:28:45;;;;;;;;;9.50;9.25;;;30.46;97865.20;;;;119152;1187;24792;-73
2022/06/27 18:31:14;;;;;;;;;10.25;8.25;;;30.43;97870.80;;;;119132;1188;25308;-72
2022/06/27 18:33:42;;;;;;;;;8.75;8.75;;;30.40;97869.95;;;;119020;1189;24812;-74
2022/06/27 18:36:11;;;;;;;;;9.75;9.75;;;30.36;97874.38;;;;118943;1190;25066;-73
2022/06/27 18:38:39;;;;;;;;;13.25;11.00;;;30.34;97875.14;;;;119023;1189;25292;-71
2022/06/27 18:41:07;;;;;;;;;10.25;8.00;;;30.30;97878.70;;;;119138;1187;24845;-74
2022/06/27 18:43:36;;;;;;;;;7.75;7.75;;;30.29;97879.10;;;;119021;1189;25767;-74
2022/06/27 18:46:04;;;;;;;;;9.75;8.50;;;30.27;97880.60;;;;119067;1187;24956;-74
2022/06/27 18:48:32;;;;;;;;;6.50;6.50;;;30.23;97884.27;;;;119330;1186;26531;-72
2022/06/27 18:51:03;;;;;;;;;7.33;7.00;;;30.22;97887.45;;;;119036;1188;25442;-72
2022/06/27 18:53:35;;;;;;;;;6.75;5.50;;;30.19;97890.58;;;;119021;1188;25198;-73
2022/06/27 18:56:05;;;;;;;;;9.00;9.00;;;30.18;97893.31;;;;118965;1190;25668;-71
2022/06/27 18:58:34;;;;;;;;;9.00;7.50;;;30.15;97897.91;;;;118954;1190;25265;-73
2022/06/27 19:01:04;;;;;;;;;7.25;6.75;;;30.13;97898.69;;;;119030;1188;25550;-72
2022/06/27 19:03:33;;;;;;;;;7.75;6.00;;;30.09;97905.75;;;;119138;1188;26220;-74
2022/06/27 19:06:03;;;;;;;;;9.25;9.25;;;30.05;97906.34;;;;118967;1188;25464;-74
2022/06/27 19:08:32;;;;;;;;;11.00;9.25;;;30.01;97906.52;;;;119160;1188;24761;-73
2022/06/27 19:11:05;;;;;;;;;11.25;10.75;;;30.02;97909.45;;;;119140;1187;25672;-73
2022/06/27 19:13:34;;;;;;;;;9.00;9.00;;;29.99;97912.38;;;;119032;1189;25064;-70
2022/06/27 19:16:03;;;;;;;;;11.00;11.00;;;29.96;97908.95;;;;119175;1186;24982;-72
2022/06/27 19:18:37;;;;;;;;;11.00;11.00;;;29.92;97909.89;;;;119121;1187;25408;-70
2022/06/27 19:21:06;;;;;;;;;10.75;10.00;;;29.91;97909.44;;;;119196;1187;24939;-72
2022/06/27 19:23:37;;;;;;;;;8.00;8.00;;;29.89;97907.81;;;;119279;1186;25229;-73
2022/06/27 19:26:08;;;;;;;;;7.50;7.50;;;29.83;97910.34;;;;119065;1189;25887;-72
2022/06/27 19:28:36;;;;;;;;;6.50;5.75;;;29.78;97910.34;;;;119233;1187;24984;-74
2022/06/27 19:31:07;;;;;;;;;6.50;6.50;;;29.80;97915.41;;;;119280;1186;24696;-73
2022/06/27 19:33:36;;;;;;;;;9.00;8.00;;;29.77;97917.52;;;;119289;1187;24801;-71
2022/06/27 19:36:05;;;;;;;;;9.50;9.00;;;29.72;97916.49;;;;119070;1187;24910;-71
2022/06/27 19:38:33;;;;;;;;;10.00;10.00;;;29.67;97919.20;;;;119277;1187;25490;-73
2022/06/27 19:41:01;;;;;;;;;13.00;12.00;;;29.65;97916.17;;;;119071;1187;25555;-71
2022/06/27 19:43:31;;;;;;;;;22.50;19.00;;;29.63;97917.95;;;;119272;1186;25728;-71
2022/06/27 19:46:01;;;;;;;;;19.75;18.00;;;29.58;97918.09;;;;119290;1187;26227;-71
2022/06/27 19:48:33;;;;;;;;;16.00;14.75;;;29.58;97922.00;;;;119078;1189;25612;-71
2022/06/27 19:51:04;;;;;;;;;11.75;11.25;;;29.55;97920.92;;;;119013;1189;25351;-70
2022/06/27 19:53:32;;;;;;;;;15.33;12.00;;;29.54;97921.39;;;;119084;1188;24950;-72
2022/06/27 19:56:01;;;;;;;;;11.75;11.00;;;29.50;97925.23;;;;119266;1186;25051;-71
2022/06/27 19:58:29;;;;;;;;;9.75;9.75;;;29.49;97925.13;;;;119281;1187;25676;-71
2022/06/27 20:01:00;;;;;;;;;10.50;10.50;;;29.46;97928.45;;;;119267;1187;24729;-72
2022/06/27 20:03:28;;;;;;;;;14.75;10.25;;;29.48;97933.12;;;;119281;1187;25733;-72
2022/06/27 20:05:56;;;;;;;;;12.33;12.33;;;29.44;97934.39;;;;119277;1187;24738;-74
2022/06/27 20:08:24;;;;;;;;;12.50;11.25;;;29.39;97934.92;;;;119042;1189;26078;-71
2022/06/27 20:10:55;;;;;;;;;10.75;10.75;;;29.34;97934.86;;;;118969;1189;25446;-71
2022/06/27 20:13:24;;;;;;;;;10.00;10.00;;;29.35;97940.95;;;;119015;1188;25260;-73
2022/06/27 20:15:52;;;;;;;;;12.00;9.50;;;29.32;97941.01;;;;119022;1189;24984;-73
2022/06/27 20:18:20;;;;;;;;;10.75;10.00;;;29.31;97939.84;;;;119030;1188;25158;-73
2022/06/27 20:20:48;;;;;;;;;11.75;11.75;;;29.27;97941.59;;;;119021;1189;25036;-70
2022/06/27 20:23:16;;;;;;;;;15.00;10.25;;;29.28;97942.40;;;;119257;1188;25286;-69
2022/06/27 20:25:44;;;;;;;;;15.00;14.00;;;29.29;97940.65;;;;119217;1187;25133;-69
2022/06/27 20:28:16;;;;;;;;;16.25;15.25;;;29.27;97941.55;;;;119034;1187;25122;-70
2022/06/27 20:30:44;;;;;;;;;14.50;13.00;;;29.25;97942.45;;;;119052;1188;24848;-72
2022/06/27 20:33:12;;;;;;;;;9.67;9.33;;;29.25;97947.33;;;;119252;1187;25561;-74
2022/06/27 20:35:40;;;;;;;;;10.75;9.25;;;29.24;97946.77;;;;119313;1186;25575;-72
2022/06/27 20:38:08;;;;;;;;;12.25;11.50;;;29.22;97951.60;;;;119306;1187;24902;-72
2022/06/27 20:40:36;;;;;;;;;8.25;8.25;;;29.19;97954.92;;;;119038;1190;24699;-72
2022/06/27 20:43:04;;;;;;;;;11.25;9.75;;;29.17;97951.40;;;;119181;1188;24937;-72
2022/06/27 20:45:33;;;;;;;;;12.00;12.00;;;29.17;97943.36;;;;119188;1188;25074;-70
2022/06/27 20:48:01;;;;;;;;;16.50;13.50;;;29.17;97939.63;;;;119182;1187;24812;-70
2022/06/27 20:50:30;;;;;;;;;16.50;14.75;;;29.20;97941.23;;;;119197;1187;25823;-71
2022/06/27 20:52:59;;;;;;;;;16.75;16.75;;;29.21;97947.16;;;;119245;1187;24978;-71
2022/06/27 20:55:27;;;;;;;;;14.33;14.33;;;29.23;97946.11;;;;119299;1187;25442;-69
2022/06/27 20:57:54;;;;;;;;;16.50;16.50;;;29.23;97944.20;;;;119238;1187;24989;-70
2022/06/27 21:00:22;;;;;;;;;17.50;17.50;;;29.24;97942.28;;;;119218;1188;24755;-70
2022/06/27 21:02:50;;;;;;;;;15.75;15.75;;;29.25;97942.14;;;;119217;1187;24715;-70
2022/06/27 21:05:18;;;;;;;;;16.75;14.50;;;29.25;97940.86;;;;119201;1187;25632;-72
2022/06/27 21:13:19;;;;;;;;;30.25;26.25;;;29.24;97946.86;;;;119210;1188;25341;-71
2022/06/27 21:15:47;;;;;;;;;18.75;17.25;;;29.26;97946.20;;;;119241;1188;25596;-70
2022/06/27 21:18:14;;;;;;;;;24.25;20.25;;;29.27;97946.41;;;;119225;1187;25498;-70
2022/06/27 21:20:43;;;;;;;;;24.75;17.00;;;29.25;97944.05;;;;119215;1188;25291;-70
2022/06/27 21:23:11;;;;;;;;;22.50;20.50;;;29.23;97943.88;;;;119242;1188;25542;-70
2022/06/27 21:25:39;;;;;;;;;20.00;20.00;;;29.23;97945.52;;;;119027;1189;25362;-71
2022/06/27 21:28:07;;;;;;;;;26.00;25.00;;;29.24;97946.27;;;;119294;1187;24823;-71
2022/06/27 21:30:35;;;;;;;;;28.50;24.50;;;29.23;97944.48;;;;119299;1186;25017;-72
2022/06/27 21:33:03;;;;;;;;;24.00;22.00;;;29.22;97941.52;;;;119272;1187;24965;-70
2022/06/27 21:35:31;;;;;;;;;25.67;22.67;;;29.21;97938.05;;;;119275;1187;25979;-72
2022/06/27 21:37:59;;;;;;;;;19.75;18.75;;;29.22;97943.40;;;;119041;1187;25018;-72
2022/06/27 21:40:27;;;;;;;;;18.75;17.00;;;29.21;97942.91;;;;119127;1187;25407;-73
2022/06/27 21:42:55;;;;;;;;;22.75;19.25;;;29.20;97944.73;;;;119218;1188;25271;-72
2022/06/27 21:45:23;;;;;;;;;21.25;19.00;;;29.20;97946.99;;;;119269;1187;25437;-73
2022/06/27 21:47:52;;;;;;;;;16.75;16.75;;;29.21;97945.98;;;;119049;1188;24963;-73
2022/06/27 21:50:20;;;;;;;;;21.75;18.25;;;29.21;97944.08;;;;119155;1189;25528;-71
2022/06/27 21:52:48;;;;;;;;;16.67;15.67;;;29.19;97945.52;;;;119177;1188;25768;-73
2022/06/27 21:55:18;;;;;;;;;21.25;18.00;;;29.18;97944.36;;;;119174;1188;25433;-71
2022/06/27 21:57:48;;;;;;;;;19.00;17.75;;;29.18;97940.42;;;;119147;1188;25754;-70
2022/06/27 22:00:18;;;;;;;;;14.00;14.00;;;29.19;97940.13;;;;119184;1188;25315;-72
2022/06/27 22:02:46;;;;;;;;;13.00;13.00;;;29.19;97941.38;;;;119157;1188;24997;-72
2022/06/27 22:05:16;;;;;;;;;19.50;18.00;;;29.18;97942.45;;;;119184;1187;25563;-71
2022/06/27 22:07:44;;;;;;;;;21.00;17.00;;;29.18;97942.17;;;;119289;1187;25506;-69
2022/06/27 22:10:11;;;;;;;;;21.75;19.50;;;29.18;97941.40;;;;119288;1187;25516;-74
2022/06/27 22:12:41;;;;;;;;;22.50;18.75;;;29.16;97938.52;;;;119299;1187;25204;-70
2022/06/27 22:15:12;;;;;;;;;22.00;21.50;;;29.16;97938.27;;;;119300;1186;25053;-72
2022/06/27 22:17:40;;;;;;;;;19.75;16.75;;;29.17;97936.44;;;;119272;1187;25150;-70
2022/06/27 22:20:12;;;;;;;;;14.75;14.00;;;29.18;97937.99;;;;119304;1188;24942;-70
2022/06/27 22:22:44;;;;;;;;;17.00;17.00;;;29.17;97938.40;;;;119294;1186;25179;-70
2022/06/27 22:25:12;;;;;;;;;23.33;23.33;;;29.16;97938.30;;;;119118;1187;25711;-70
2022/06/27 22:27:41;;;;;;;;;26.00;22.75;;;29.14;97936.58;;;;119249;1187;25628;-70
2022/06/27 22:30:14;;;;;;;;;23.25;22.00;;;29.13;97933.66;;;;119018;1189;24832;-71
2022/06/27 22:32:42;;;;;;;;;20.00;17.00;;;29.12;97930.66;;;;119072;1188;25040;-69
2022/06/27 22:35:14;;;;;;;;;21.50;21.50;;;29.13;97931.04;;;;119118;1188;25793;-70
2022/06/27 22:37:42;;;;;;;;;18.25;17.50;;;29.12;97931.30;;;;119070;1188;25170;-70
2022/06/27 22:40:11;;;;;;;;;17.75;16.75;;;29.11;97931.64;;;;119298;1187;25298;-69
2022/06/27 22:42:39;;;;;;;;;16.75;15.75;;;29.10;97929.35;;;;119290;1186;25469;-71
2022/06/27 22:45:07;;;;;;;;;34.75;26.75;;;29.10;97930.77;;;;119299;1187;24727;-70
2022/06/27 22:47:35;;;;;;;;;30.00;27.25;;;29.08;97932.29;;;;119251;1187;24712;-70
2022/06/27 22:50:05;;;;;;;;;22.75;19.25;;;29.07;97930.55;;;;119187;1187;25681;-70
2022/06/27 22:52:33;;;;;;;;;23.00;21.50;;;29.08;97932.90;;;;119153;1188;24916;-71
2022/06/27 22:55:01;;;;;;;;;35.33;30.33;;;29.06;97936.50;;;;119270;1187;25169;-69
2022/06/27 22:57:29;;;;;;;;;26.75;24.75;;;29.05;97939.66;;;;119259;1187;24877;-72
2022/06/27 22:59:57;;;;;;;;;34.25;31.25;;;29.06;97939.08;;;;119155;1187;25564;-70
2022/06/27 23:02:25;;;;;;;;;23.75;22.25;;;29.05;97940.55;;;;119142;1188;24984;-69
2022/06/27 23:04:53;;;;;;;;;16.25;16.00;;;29.04;97943.83;;;;119157;1187;24724;-69
2022/06/27 23:07:21;;;;;;;;;13.50;12.25;;;29.03;97941.64;;;;119162;1188;25488;-70
2022/06/27 23:09:49;;;;;;;;;24.00;18.00;;;29.03;97942.71;;;;119194;1188;25218;-71
2022/06/27 23:12:17;;;;;;;;;20.25;19.25;;;29.01;97941.67;;;;119131;1187;25143;-73
2022/06/27 23:14:45;;;;;;;;;16.00;15.00;;;28.99;97941.31;;;;119123;1188;25379;-70
2022/06/27 23:17:13;;;;;;;;;16.50;15.50;;;28.97;97939.48;;;;119166;1187;25242;-70
2022/06/27 23:19:41;;;;;;;;;20.50;17.50;;;28.96;97946.16;;;;119189;1187;24960;-70
2022/06/27 23:22:08;;;;;;;;;18.50;16.75;;;28.96;97941.45;;;;119171;1187;24837;-69
2022/06/27 23:24:36;;;;;;;;;15.50;14.75;;;28.95;97944.96;;;;119212;1188;25413;-70
2022/06/27 23:27:05;;;;;;;;;16.25;15.25;;;28.95;97947.19;;;;119048;1188;25188;-69
2022/06/27 23:29:32;;;;;;;;;18.00;16.00;;;28.93;97940.02;;;;119214;1187;25337;-69
2022/06/27 23:32:00;;;;;;;;;14.50;13.75;;;28.94;97937.20;;;;119181;1189;25397;-70
2022/06/27 23:34:28;;;;;;;;;14.75;14.75;;;28.94;97932.29;;;;119148;1187;25360;-71
2022/06/27 23:36:56;;;;;;;;;17.00;12.25;;;28.92;97932.64;;;;119161;1188;25273;-70
2022/06/27 23:39:24;;;;;;;;;10.50;10.00;;;28.91;97938.54;;;;119154;1187;24785;-70
2022/06/27 23:41:52;;;;;;;;;11.25;8.75;;;28.91;97942.08;;;;119017;1190;24979;-70
2022/06/27 23:44:21;;;;;;;;;9.00;7.75;;;28.90;97944.02;;;;119127;1188;25139;-71
2022/06/27 23:46:49;;;;;;;;;9.50;9.50;;;28.89;97939.89;;;;119051;1189;25327;-71
2022/06/27 23:49:17;;;;;;;;;8.00;5.00;;;28.89;97929.81;;;;119116;1188;25372;-71
2022/06/27 23:51:45;;;;;;;;;11.75;10.25;;;28.87;97922.84;;;;119159;1187;26125;-70
2022/06/27 23:54:14;;;;;;;;;11.75;10.25;;;28.85;97918.63;;;;119159;1188;25085;-70
2022/06/27 23:56:42;;;;;;;;;12.50;12.25;;;28.84;97921.79;;;;119122;1187;25079;-71
2022/06/27 23:59:16;;;;;;;;;15.50;15.50;;;28.86;97928.39;;;;119000;1188;25703;-70
